Time;durP1;ratioP1;P1;durP2;ratioP2;P2;SDS_P1;SDS_P2;PMS_P1;PMS_P2;Temp;Humidity;BMP_temperature;BMP_pressure;BME280_temperature;BME280_humidity;BME280_pressure;Samples;Min_cycle;Max_cycle;Signal;HPM_P1;HPM_P2
2024/02/02 00:01:12;;;;;;;5.82;2.42;;;16.00;55.30;;;;;;5051992;28;20229;-65
2024/02/02 00:03:38;;;;;;;6.47;2.95;;;16.00;55.30;;;;;;5051095;28;20183;-65
2024/02/02 00:06:04;;;;;;;5.95;2.50;;;16.00;55.30;;;;;;5051168;28;20203;-65
2024/02/02 00:08:29;;;;;;;5.68;3.00;;;16.00;55.50;;;;;;5051208;28;20218;-66
2024/02/02 00:10:55;;;;;;;5.43;2.38;;;16.00;55.50;;;;;;5051643;28;20229;-65
2024/02/02 00:13:21;;;;;;;4.03;2.10;;;16.00;55.50;;;;;;5050755;28;20626;-66
2024/02/02 00:15:47;;;;;;;5.00;2.17;;;16.00;55.50;;;;;;5051718;28;20201;-65
2024/02/02 00:18:12;;;;;;;3.88;2.40;;;16.00;55.50;;;;;;5051555;28;20175;-66
2024/02/02 00:20:38;;;;;;;5.03;2.85;;;15.90;55.60;;;;;;5054531;28;20221;-66
2024/02/02 00:23:03;;;;;;;4.18;2.28;;;15.90;55.50;;;;;;5056111;28;20605;-66
2024/02/02 00:25:29;;;;;;;6.28;2.88;;;15.90;55.60;;;;;;5055374;28;20175;-65
2024/02/02 00:27:55;;;;;;;4.68;2.70;;;15.90;55.60;;;;;;5054953;28;20202;-64
2024/02/02 00:30:23;;;;;;;5.65;2.78;;;15.90;55.60;;;;;;5055558;28;20381;-65
2024/02/02 00:32:48;;;;;;;6.28;2.63;;;15.90;55.60;;;;;;5055502;28;20191;-65
2024/02/02 00:35:14;;;;;;;4.40;2.75;;;15.90;55.60;;;;;;5054886;28;20198;-66
2024/02/02 00:37:40;;;;;;;5.53;2.60;;;15.80;55.50;;;;;;5055258;28;20194;-67
2024/02/02 00:40:06;;;;;;;3.95;2.45;;;15.90;55.70;;;;;;5055008;28;20182;-66
2024/02/02 00:42:32;;;;;;;4.90;2.95;;;15.80;55.50;;;;;;5055271;28;20172;-66
2024/02/02 00:45:00;;;;;;;4.80;2.53;;;15.80;55.60;;;;;;5055569;28;20186;-66
2024/02/02 00:47:26;;;;;;;5.30;2.33;;;15.80;55.60;;;;;;5054244;28;20952;-66
2024/02/02 00:49:51;;;;;;;4.72;2.53;;;15.80;55.60;;;;;;5055272;28;20213;-66
2024/02/02 00:52:17;;;;;;;4.28;2.63;;;15.80;55.60;;;;;;5055084;28;20178;-65
2024/02/02 00:54:43;;;;;;;5.55;2.50;;;15.80;55.60;;;;;;5054512;28;20183;-66
2024/02/02 00:57:08;;;;;;;3.92;2.45;;;15.80;55.60;;;;;;5055113;28;20219;-65
2024/02/02 00:59:34;;;;;;;5.50;2.38;;;15.80;55.60;;;;;;5054870;28;20187;-66
2024/02/02 01:01:59;;;;;;;6.68;2.70;;;15.80;55.60;;;;;;5054325;28;20175;-65
2024/02/02 01:04:25;;;;;;;6.35;2.75;;;15.70;55.60;;;;;;5054699;28;20178;-65
2024/02/02 01:06:50;;;;;;;5.95;2.28;;;15.70;55.60;;;;;;5054980;28;20167;-65
2024/02/02 01:09:16;;;;;;;6.20;2.70;;;15.70;55.60;;;;;;5054200;28;20297;-65
2024/02/02 01:11:42;;;;;;;4.90;2.40;;;15.70;55.60;;;;;;5054898;28;20638;-65
2024/02/02 01:14:07;;;;;;;4.50;2.42;;;15.70;55.60;;;;;;5055068;28;20273;-65
2024/02/02 01:16:33;;;;;;;6.13;2.83;;;15.70;55.60;;;;;;5053822;28;20265;-65
2024/02/02 01:18:58;;;;;;;5.38;2.40;;;15.70;55.60;;;;;;5054809;28;20179;-65
2024/02/02 01:21:36;;;;;;;4.40;2.28;;;15.70;55.70;;;;;;5054628;28;20600;-65
2024/02/02 01:24:02;;;;;;;6.15;3.00;;;15.70;55.70;;;;;;5054207;28;20269;-66
2024/02/02 01:26:27;;;;;;;8.60;3.03;;;15.70;55.60;;;;;;5054468;28;20604;-66
2024/02/02 01:28:56;;;;;;;5.35;2.80;;;15.70;55.70;;;;;;5054652;28;20565;-65
2024/02/02 01:31:21;;;;;;;5.60;2.58;;;15.70;55.70;;;;;;5052577;28;20175;-65
2024/02/02 01:33:48;;;;;;;6.55;2.60;;;15.60;55.60;;;;;;5054427;28;20175;-65
2024/02/02 01:36:14;;;;;;;6.22;2.72;;;15.70;55.70;;;;;;5054463;28;20186;-66
2024/02/02 01:38:41;;;;;;;4.60;2.70;;;15.60;55.70;;;;;;5053525;28;20179;-66
2024/02/02 01:41:06;;;;;;;4.72;2.25;;;15.60;55.70;;;;;;5054462;28;20186;-66
2024/02/02 01:43:32;;;;;;;5.35;2.90;;;15.60;55.70;;;;;;5052234;28;20536;-67
2024/02/02 01:45:57;;;;;;;5.90;2.72;;;15.60;55.70;;;;;;5052968;28;20171;-66
2024/02/02 01:48:24;;;;;;;6.38;2.40;;;15.60;55.70;;;;;;5054129;28;20213;-66
2024/02/02 01:50:49;;;;;;;3.75;2.50;;;15.60;55.70;;;;;;5053750;28;20245;-66
2024/02/02 01:53:15;;;;;;;5.15;2.55;;;15.60;55.60;;;;;;5054339;28;20626;-66
2024/02/02 01:55:40;;;;;;;6.82;2.72;;;15.60;55.70;;;;;;5053819;28;20229;-65
2024/02/02 01:58:06;;;;;;;3.83;2.38;;;15.60;55.60;;;;;;5053436;28;20179;-65
2024/02/02 02:00:32;;;;;;;5.38;2.63;;;15.60;55.70;;;;;;5053735;28;20638;-65
2024/02/02 02:02:57;;;;;;;4.50;2.55;;;15.60;56.30;;;;;;5054243;28;20681;-64
2024/02/02 02:05:23;;;;;;;5.65;3.00;;;15.60;55.70;;;;;;5053034;28;20555;-65
2024/02/02 02:07:48;;;;;;;4.90;2.55;;;15.60;55.70;;;;;;5052850;28;20210;-65
2024/02/02 02:10:14;;;;;;;4.97;2.47;;;15.60;55.70;;;;;;5053912;28;20218;-65
2024/02/02 02:12:40;;;;;;;5.53;3.10;;;15.60;55.70;;;;;;5052767;28;20237;-65
2024/02/02 02:15:06;;;;;;;4.70;2.65;;;15.60;55.70;;;;;;5053742;28;20179;-65
2024/02/02 02:17:31;;;;;;;4.05;2.58;;;15.60;55.80;;;;;;5052295;28;20691;-65
2024/02/02 02:19:58;;;;;;;4.45;2.33;;;15.50;55.70;;;;;;5052808;28;20522;-65
2024/02/02 02:22:24;;;;;;;5.00;2.85;;;15.60;55.80;;;;;;5052337;28;20537;-65
2024/02/02 02:24:49;;;;;;;4.68;2.30;;;15.60;55.70;;;;;;5053715;28;20176;-64
2024/02/02 02:27:15;;;;;;;3.78;1.98;;;15.50;55.70;;;;;;5052842;28;20524;-64
2024/02/02 02:29:40;;;;;;;4.88;2.92;;;15.50;55.80;;;;;;5052027;28;20203;-65
2024/02/02 02:32:06;;;;;;;7.15;2.50;;;15.50;55.80;;;;;;5053390;28;20175;-65
2024/02/02 02:34:32;;;;;;;5.63;2.50;;;15.50;55.80;;;;;;5052376;28;20626;-66
2024/02/02 02:36:57;;;;;;;5.80;2.60;;;15.50;56.30;;;;;;5053544;28;20205;-67
2024/02/02 02:39:23;;;;;;;3.90;2.22;;;15.50;55.80;;;;;;5053082;28;20542;-65
2024/02/02 02:41:48;;;;;;;6.20;2.50;;;15.50;55.90;;;;;;5052436;28;20175;-66
2024/02/02 02:44:14;;;;;;;4.03;2.47;;;15.50;55.80;;;;;;5052903;28;20535;-66
2024/02/02 02:46:40;;;;;;;4.35;2.63;;;15.50;55.80;;;;;;5052347;28;20175;-66
2024/02/02 02:49:06;;;;;;;4.18;2.20;;;15.50;56.40;;;;;;5052770;28;20215;-66
2024/02/02 02:51:31;;;;;;;4.47;2.35;;;15.50;55.80;;;;;;5052922;28;20171;-66
2024/02/02 02:53:57;;;;;;;3.92;2.03;;;15.50;55.80;;;;;;5052464;28;20686;-66
2024/02/02 02:56:22;;;;;;;5.30;2.20;;;15.40;55.80;;;;;;5052602;28;20435;-66
2024/02/02 02:58:48;;;;;;;3.90;2.13;;;15.50;55.80;;;;;;5052813;28;20182;-65
2024/02/02 03:01:13;;;;;;;4.15;2.53;;;15.50;55.80;;;;;;5052136;28;20171;-66
2024/02/02 03:03:39;;;;;;;5.80;2.40;;;15.50;55.80;;;;;;5052704;28;20543;-65
2024/02/02 03:06:05;;;;;;;5.82;2.28;;;15.50;55.90;;;;;;5052850;28;20198;-66
2024/02/02 03:08:30;;;;;;;6.90;2.35;;;15.40;55.80;;;;;;5051608;28;20198;-66
2024/02/02 03:10:58;;;;;;;6.07;2.28;;;15.40;55.80;;;;;;5052784;28;20233;-65
2024/02/02 03:13:23;;;;;;;7.53;2.53;;;15.40;55.70;;;;;;5052375;28;20191;-65
2024/02/02 03:15:49;;;;;;;2.97;2.35;;;15.40;55.70;;;;;;5051923;28;20182;-64
2024/02/02 03:18:14;;;;;;;3.78;2.00;;;15.40;55.80;;;;;;5052608;28;20228;-65
2024/02/02 03:20:40;;;;;;;5.43;2.63;;;15.40;55.80;;;;;;5052384;28;20229;-65
2024/02/02 03:23:06;;;;;;;4.88;2.35;;;15.40;55.80;;;;;;5051933;28;20625;-65
2024/02/02 03:25:31;;;;;;;3.72;2.20;;;15.40;55.90;;;;;;5052218;28;20179;-65
2024/02/02 03:27:57;;;;;;;5.75;2.45;;;15.40;55.80;;;;;;5052063;28;20238;-63
2024/02/02 03:30:22;;;;;;;5.25;2.58;;;15.40;55.80;;;;;;5051151;28;20234;-65
2024/02/02 03:32:49;;;;;;;5.50;2.58;;;15.40;55.80;;;;;;5052303;28;20178;-65
2024/02/02 03:35:15;;;;;;;5.90;2.67;;;15.40;55.80;;;;;;5052299;28;20541;-65
2024/02/02 03:37:40;;;;;;;3.78;2.13;;;15.40;55.80;;;;;;5051293;28;20178;-66
2024/02/02 03:40:06;;;;;;;6.47;2.70;;;15.40;55.90;;;;;;5052343;28;20183;-65
2024/02/02 03:42:32;;;;;;;5.40;2.63;;;15.40;55.80;;;;;;5051865;28;20171;-66
2024/02/02 03:44:57;;;;;;;5.63;2.25;;;15.40;55.90;;;;;;5051456;28;20185;-66
2024/02/02 03:47:24;;;;;;;5.07;2.42;;;15.30;55.90;;;;;;5051834;28;20190;-66
2024/02/02 03:49:49;;;;;;;4.90;2.70;;;15.30;55.80;;;;;;5051674;28;20728;-66
2024/02/02 03:52:15;;;;;;;5.88;2.72;;;15.30;55.90;;;;;;5051338;28;20179;-65
2024/02/02 03:54:41;;;;;;;6.40;2.45;;;15.30;55.90;;;;;;5051497;28;20175;-66
2024/02/02 03:57:06;;;;;;;5.38;2.60;;;15.30;55.90;;;;;;5051101;28;20227;-66
2024/02/02 03:59:32;;;;;;;5.15;2.58;;;15.30;55.90;;;;;;5051616;28;20178;-66
2024/02/02 04:01:57;;;;;;;3.80;2.13;;;15.30;55.90;;;;;;5052093;28;20206;-65
2024/02/02 04:04:23;;;;;;;4.80;2.50;;;15.30;55.90;;;;;;5050774;28;20187;-65
2024/02/02 04:06:49;;;;;;;5.90;2.78;;;15.30;55.90;;;;;;5051874;28;20175;-66
2024/02/02 04:09:14;;;;;;;5.22;2.55;;;15.30;55.90;;;;;;5051828;28;20248;-65
2024/02/02 04:11:40;;;;;;;5.50;2.95;;;15.20;55.90;;;;;;5050843;28;20650;-66
2024/02/02 04:14:05;;;;;;;4.63;2.30;;;15.30;55.90;;;;;;5051552;28;20190;-64
2024/02/02 04:16:31;;;;;;;7.18;2.70;;;15.30;55.90;;;;;;5051372;28;20172;-65
2024/02/02 04:18:58;;;;;;;5.50;2.40;;;15.30;55.90;;;;;;5051259;28;20176;-65
2024/02/02 04:21:24;;;;;;;7.50;2.92;;;15.30;55.90;;;;;;5051343;28;20175;-65
2024/02/02 04:23:49;;;;;;;5.05;2.22;;;15.20;55.80;;;;;;5052034;28;20181;-65
2024/02/02 04:26:15;;;;;;;5.32;2.70;;;15.20;55.90;;;;;;5050977;28;20645;-63
2024/02/02 04:28:40;;;;;;;4.72;2.72;;;15.20;55.90;;;;;;5051329;28;20215;-65
2024/02/02 04:31:06;;;;;;;4.40;2.63;;;15.20;55.90;;;;;;5051616;28;20305;-66
2024/02/02 04:33:31;;;;;;;4.63;2.30;;;15.20;55.90;;;;;;5050846;28;20179;-65
2024/02/02 04:35:57;;;;;;;4.38;2.67;;;15.20;56.00;;;;;;5051589;28;20175;-66
2024/02/02 04:38:22;;;;;;;6.03;2.63;;;15.20;55.90;;;;;;5051287;28;20179;-66
2024/02/02 04:40:48;;;;;;;6.10;2.92;;;15.20;55.90;;;;;;5050936;28;20175;-67
2024/02/02 04:43:14;;;;;;;5.28;2.70;;;15.20;56.50;;;;;;5051493;28;20584;-66
2024/02/02 04:45:40;;;;;;;5.15;2.63;;;15.20;55.90;;;;;;5051436;28;20175;-66
2024/02/02 04:48:06;;;;;;;6.30;2.75;;;15.20;55.90;;;;;;5050976;28;20179;-66
2024/02/02 04:50:32;;;;;;;4.68;2.85;;;15.20;55.80;;;;;;5051279;28;20238;-67
2024/02/02 04:52:58;;;;;;;4.13;2.55;;;15.20;55.90;;;;;;5051517;28;20518;-67
2024/02/02 04:55:23;;;;;;;5.80;2.38;;;15.20;56.50;;;;;;5050455;28;20179;-67
2024/02/02 04:57:49;;;;;;;3.65;2.58;;;15.20;55.90;;;;;;5051150;28;20343;-66
2024/02/02 05:00:15;;;;;;;4.95;2.53;;;15.20;55.90;;;;;;5051343;28;20202;-66
2024/02/02 05:02:40;;;;;;;5.47;2.33;;;15.20;56.00;;;;;;5050645;28;20179;-66
2024/02/02 05:05:06;;;;;;;5.25;2.70;;;15.10;55.90;;;;;;5051507;28;20178;-66
2024/02/02 05:07:32;;;;;;;4.28;2.13;;;15.20;55.90;;;;;;5053518;28;20634;-66
2024/02/02 05:09:57;;;;;;;6.00;2.60;;;15.20;55.90;;;;;;5055011;28;20219;-66
2024/02/02 05:12:23;;;;;;;7.78;2.80;;;15.10;55.90;;;;;;5054659;28;20537;-67
2024/02/02 05:14:49;;;;;;;5.15;2.45;;;15.10;55.90;;;;;;5054255;28;20175;-66
2024/02/02 05:17:16;;;;;;;5.45;2.70;;;15.10;55.90;;;;;;5055078;28;20182;-67
2024/02/02 05:19:41;;;;;;;6.80;2.30;;;15.10;55.80;;;;;;5054866;28;20210;-67
2024/02/02 05:22:07;;;;;;;6.05;2.53;;;15.10;55.80;;;;;;5054074;28;20233;-66
2024/02/02 05:24:34;;;;;;;6.75;2.80;;;15.10;55.90;;;;;;5054344;28;20198;-67
2024/02/02 05:26:59;;;;;;;6.32;2.75;;;15.10;55.80;;;;;;5054695;28;20171;-66
2024/02/02 05:29:25;;;;;;;5.13;2.30;;;15.10;55.90;;;;;;5053736;28;20226;-66
2024/02/02 05:31:50;;;;;;;5.28;2.45;;;15.10;55.90;;;;;;5054772;28;20687;-66
2024/02/02 05:34:16;;;;;;;4.43;2.40;;;15.10;55.90;;;;;;5054466;28;20182;-67
2024/02/02 05:36:41;;;;;;;4.88;2.40;;;15.10;55.80;;;;;;5053645;28;20171;-68
2024/02/02 05:39:09;;;;;;;4.10;2.50;;;15.10;55.90;;;;;;5054411;28;20183;-67
2024/02/02 05:41:34;;;;;;;7.82;2.88;;;15.10;55.90;;;;;;5054062;28;20182;-67
2024/02/02 05:44:00;;;;;;;5.55;2.35;;;15.10;55.90;;;;;;5053615;28;20189;-67
2024/02/02 05:46:25;;;;;;;3.58;2.30;;;15.10;55.90;;;;;;5053969;28;20216;-67
2024/02/02 05:48:51;;;;;;;5.25;2.38;;;15.10;55.90;;;;;;5054277;28;20207;-67
2024/02/02 05:51:16;;;;;;;4.90;2.33;;;15.10;55.90;;;;;;5053486;28;20174;-67
2024/02/02 05:53:42;;;;;;;6.72;2.22;;;15.10;55.80;;;;;;5054017;28;20168;-67
2024/02/02 05:56:07;;;;;;;5.68;2.58;;;15.20;55.70;;;;;;5053914;28;20245;-67
2024/02/02 05:58:33;;;;;;;5.30;2.53;;;15.20;55.60;;;;;;5053314;28;20649;-67
2024/02/02 06:00:59;;;;;;;3.85;2.33;;;15.20;55.50;;;;;;5054109;28;20541;-67
2024/02/02 06:03:24;;;;;;;4.93;2.30;;;15.30;55.40;;;;;;5053639;28;20180;-66
2024/02/02 06:05:50;;;;;;;5.68;2.65;;;15.40;55.30;;;;;;5053401;28;20187;-66
2024/02/02 06:08:15;;;;;;;3.55;2.17;;;15.40;55.30;;;;;;5053686;28;20175;-66
2024/02/02 06:10:41;;;;;;;3.78;2.00;;;15.50;55.30;;;;;;5052977;28;20175;-66
2024/02/02 06:13:07;;;;;;;6.22;2.22;;;15.60;55.30;;;;;;5054122;28;20194;-66
2024/02/02 06:15:33;;;;;;;5.20;2.40;;;15.60;55.20;;;;;;5053672;28;20255;-65
2024/02/02 06:17:59;;;;;;;3.35;2.45;;;15.60;55.10;;;;;;5052801;28;20310;-67
2024/02/02 06:20:30;;;;;;;5.47;2.65;;;15.60;55.00;;;;;;5053355;28;20236;-68
2024/02/02 06:22:55;;;;;;;5.63;2.58;;;15.70;55.00;;;;;;5053843;28;20265;-65
2024/02/02 06:25:21;;;;;;;4.05;2.20;;;15.70;54.90;;;;;;5053011;28;20270;-65
2024/02/02 06:27:46;;;;;;;3.17;2.05;;;15.80;54.90;;;;;;5053664;28;20199;-64
2024/02/02 06:30:13;;;;;;;4.18;2.08;;;15.90;54.90;;;;;;5053662;28;20219;-64
2024/02/02 06:32:41;;;;;;;3.40;2.00;;;15.90;54.80;;;;;;5052639;28;20178;-66
2024/02/02 06:35:06;;;;;;;3.70;2.22;;;15.90;54.70;;;;;;5053446;28;20175;-66
2024/02/02 06:37:32;;;;;;;4.20;2.08;;;15.90;54.60;;;;;;5053188;28;20167;-66
2024/02/02 06:40:03;;;;;;;4.03;2.30;;;16.00;54.60;;;;;;5052641;28;20221;-67
2024/02/02 06:42:28;;;;;;;3.30;2.05;;;16.00;54.60;;;;;;5053345;28;20171;-66
2024/02/02 06:44:56;;;;;;;3.83;2.17;;;16.00;54.50;;;;;;5053426;28;20630;-67
2024/02/02 06:47:22;;;;;;;5.38;2.00;;;16.10;54.50;;;;;;5052294;28;20182;-67
2024/02/02 06:49:48;;;;;;;4.15;2.10;;;16.10;54.50;;;;;;5053098;28;20575;-67
2024/02/02 06:52:14;;;;;;;5.13;2.10;;;16.20;54.30;;;;;;5053083;28;20183;-66
2024/02/02 06:54:43;;;;;;;5.90;2.55;;;16.40;54.30;;;;;;5052257;28;20202;-66
2024/02/02 06:57:09;;;;;;;4.45;2.35;;;16.50;54.20;;;;;;5051772;28;20310;-66
2024/02/02 06:59:35;;;;;;;4.60;2.55;;;16.70;53.90;;;;;;5052811;28;20202;-66
2024/02/02 07:02:06;;;;;;;5.55;2.38;;;16.80;53.80;;;;;;5052323;28;20175;-65
2024/02/02 07:04:32;;;;;;;3.63;1.83;;;16.90;53.60;;;;;;5051286;28;20270;-66
2024/02/02 07:06:58;;;;;;;4.57;1.90;;;17.00;53.50;;;;;;5052071;28;20261;-65
2024/02/02 07:09:28;;;;;;;4.72;2.03;;;17.10;53.30;;;;;;5052572;28;20226;-66
2024/02/02 07:12:04;;;;;;;4.63;1.95;;;17.10;53.30;;;;;;5052725;28;20201;-66
2024/02/02 07:14:44;;;;;;;5.03;2.10;;;17.10;53.20;;;;;;5051645;28;20195;-66
2024/02/02 07:17:30;;;;;;;4.72;1.92;;;17.10;53.20;;;;;;5052513;28;20228;-66
2024/02/02 07:19:57;;;;;;;3.13;1.98;;;17.20;53.10;;;;;;5052782;28;20203;-66
2024/02/02 07:22:36;;;;;;;3.60;1.88;;;17.20;53.10;;;;;;5051563;28;20182;-65
2024/02/02 07:25:07;;;;;;;3.58;1.77;;;17.20;52.90;;;;;;5052655;28;20175;-64
2024/02/02 07:27:53;;;;;;;3.10;1.80;;;17.20;53.10;;;;;;5052242;28;20182;-64
2024/02/02 07:30:31;;;;;;;4.20;1.90;;;17.20;53.10;;;;;;5051015;28;20250;-65
2024/02/02 07:32:57;;;;;;;5.55;2.45;;;17.30;53.00;;;;;;5052514;28;20258;-66
2024/02/02 07:35:33;;;;;;;3.42;2.00;;;17.30;53.00;;;;;;5051512;28;20179;-66
2024/02/02 07:38:05;;;;;;;3.08;1.80;;;17.20;53.00;;;;;;5051043;28;20179;-65
2024/02/02 07:40:30;;;;;;;3.85;1.77;;;17.20;53.20;;;;;;5052261;28;20186;-66
2024/02/02 07:42:57;;;;;;;4.20;2.00;;;17.10;53.20;;;;;;5051509;28;20180;-66
2024/02/02 07:45:22;;;;;;;3.78;1.63;;;17.00;53.40;;;;;;5051919;28;20186;-66
2024/02/02 07:47:48;;;;;;;3.00;2.00;;;17.00;54.20;;;;;;5052390;28;20179;-67
2024/02/02 07:50:13;;;;;;;5.22;2.38;;;16.90;53.60;;;;;;5051463;28;20630;-66
2024/02/02 07:52:39;;;;;;;2.75;1.80;;;16.90;53.60;;;;;;5051686;28;20178;-66
2024/02/02 07:55:05;;;;;;;4.57;2.03;;;16.90;53.70;;;;;;5052301;28;20181;-67
2024/02/02 07:57:30;;;;;;;3.95;1.50;;;16.90;53.60;;;;;;5050941;28;20231;-66
2024/02/02 07:59:56;;;;;;;3.33;1.88;;;16.90;53.70;;;;;;5051953;28;20207;-65
2024/02/02 08:02:24;;;;;;;3.75;1.85;;;17.00;53.70;;;;;;5051554;28;20185;-66
2024/02/02 08:04:49;;;;;;;4.70;2.30;;;17.00;53.50;;;;;;5051344;28;20175;-66
2024/02/02 08:07:15;;;;;;;3.83;2.20;;;17.00;53.50;;;;;;5051948;28;20759;-66
2024/02/02 08:09:40;;;;;;;6.50;2.17;;;17.00;53.60;;;;;;5051924;28;20689;-66
2024/02/02 08:12:06;;;;;;;4.72;1.90;;;17.00;53.60;;;;;;5051381;28;20171;-66
2024/02/02 08:14:32;;;;;;;4.55;2.15;;;17.00;53.50;;;;;;5051404;28;20183;-65
2024/02/02 08:16:58;;;;;;;5.32;2.53;;;17.00;53.60;;;;;;5051746;28;20639;-66
2024/02/02 08:19:24;;;;;;;3.28;1.90;;;17.00;53.50;;;;;;5050826;28;20183;-67
2024/02/02 08:21:50;;;;;;;4.20;2.53;;;17.00;53.60;;;;;;5051709;28;20167;-66
2024/02/02 08:24:15;;;;;;;3.50;1.75;;;17.10;53.70;;;;;;5051612;28;20201;-66
2024/02/02 08:26:41;;;;;;;5.90;2.33;;;17.00;53.60;;;;;;5051437;28;20189;-65
2024/02/02 08:29:06;;;;;;;4.72;2.42;;;17.10;53.60;;;;;;5051551;28;20206;-65
2024/02/02 08:31:33;;;;;;;6.22;2.85;;;17.10;53.70;;;;;;5050804;28;20171;-66
2024/02/02 08:33:58;;;;;;;5.65;2.40;;;17.10;53.70;;;;;;5051693;28;20183;-65
2024/02/02 08:36:24;;;;;;;6.10;2.40;;;17.10;53.80;;;;;;5051235;28;20254;-66
2024/02/02 08:38:49;;;;;;;8.23;2.72;;;17.10;53.80;;;;;;5049693;28;20175;-67
2024/02/02 08:41:15;;;;;;;4.88;2.20;;;17.10;53.90;;;;;;5054753;28;20175;-70
2024/02/02 08:43:42;;;;;;;6.13;2.45;;;17.00;53.80;;;;;;5055439;28;20591;-69
2024/02/02 08:46:12;;;;;;;5.40;2.50;;;17.00;54.00;;;;;;5054907;28;20206;-67
2024/02/02 08:48:39;;;;;;;6.47;2.70;;;16.90;54.20;;;;;;5055145;28;20179;-67
2024/02/02 08:51:23;;;;;;;5.40;3.00;;;16.90;54.30;;;;;;5055292;28;20210;-67
2024/02/02 08:53:49;;;;;;;5.25;2.08;;;16.90;54.50;;;;;;5054997;28;20199;-66
2024/02/02 08:56:15;;;;;;;5.72;2.20;;;16.90;54.40;;;;;;5055179;28;20242;-67
2024/02/02 08:58:41;;;;;;;6.38;2.42;;;16.90;54.40;;;;;;5054140;28;20175;-68
2024/02/02 09:01:19;;;;;;;5.45;2.60;;;16.90;54.40;;;;;;5054488;28;20249;-67
2024/02/02 09:03:45;;;;;;;5.25;2.50;;;16.90;55.00;;;;;;5053861;28;20266;-67
2024/02/02 09:06:26;;;;;;;4.32;2.40;;;16.90;54.50;;;;;;5055173;28;20215;-65
2024/02/02 09:08:51;;;;;;;7.38;2.47;;;16.80;54.40;;;;;;5053221;28;20226;-67
2024/02/02 09:11:17;;;;;;;4.18;2.10;;;16.80;54.50;;;;;;5054502;28;20646;-68
2024/02/02 09:13:46;;;;;;;5.25;2.45;;;16.80;54.60;;;;;;5053926;28;20172;-67
2024/02/02 09:16:16;;;;;;;7.65;2.90;;;16.80;54.60;;;;;;5054493;28;20710;-68
2024/02/02 09:18:50;;;;;;;5.63;2.40;;;16.70;54.80;;;;;;5052075;28;20759;-68
2024/02/02 09:21:17;;;;;;;5.47;2.22;;;16.70;54.90;;;;;;5053967;28;20183;-67
2024/02/02 09:23:48;;;;;;;6.50;2.92;;;16.70;55.00;;;;;;5053456;28;20199;-67
2024/02/02 09:26:15;;;;;;;6.13;2.53;;;16.70;55.80;;;;;;5054859;28;20203;-66
2024/02/02 09:28:44;;;;;;;6.50;2.40;;;16.60;55.10;;;;;;5052699;28;20171;-66
2024/02/02 09:31:12;;;;;;;6.15;2.55;;;16.60;55.20;;;;;;5054921;28;20237;-69
2024/02/02 09:33:46;;;;;;;4.30;2.30;;;16.60;55.20;;;;;;5053399;28;20203;-68
2024/02/02 09:36:12;;;;;;;5.32;2.38;;;16.60;55.30;;;;;;5052575;28;20553;-69
2024/02/02 09:38:38;;;;;;;5.75;2.53;;;16.50;55.30;;;;;;5052979;28;20639;-69
2024/02/02 09:41:03;;;;;;;6.93;2.58;;;16.50;55.30;;;;;;5053213;28;20179;-70
2024/02/02 09:43:34;;;;;;;5.00;2.40;;;16.50;55.40;;;;;;5053376;28;20270;-70
2024/02/02 09:46:05;;;;;;;6.35;2.53;;;16.50;55.40;;;;;;5054390;28;20171;-69
2024/02/02 09:48:56;;;;;;;6.07;2.60;;;16.50;55.40;;;;;;5052777;28;20693;-69
2024/02/02 09:51:27;;;;;;;7.53;2.17;;;16.50;55.40;;;;;;5049997;28;20187;-69
2024/02/02 09:54:20;;;;;;;7.43;2.35;;;16.50;55.40;;;;;;5053359;28;20179;-69
2024/02/02 09:57:20;;;;;;;5.75;2.45;;;16.40;55.30;;;;;;5053504;28;20233;-70
2024/02/02 09:59:56;;;;;;;6.10;2.53;;;16.50;55.40;;;;;;5053012;28;20175;-69
2024/02/02 10:02:30;;;;;;;4.30;2.10;;;16.40;55.40;;;;;;5052579;28;20711;-69
2024/02/02 10:05:11;;;;;;;4.53;2.28;;;16.40;55.40;;;;;;5051975;28;20175;-68
2024/02/02 10:07:49;;;;;;;3.65;2.22;;;16.40;55.50;;;;;;5052526;28;20232;-67
2024/02/02 10:10:39;;;;;;;7.63;2.65;;;16.40;55.50;;;;;;5050468;28;20202;-67
2024/02/02 10:13:13;;;;;;;6.63;2.60;;;16.40;55.80;;;;;;5052166;28;20175;-67
2024/02/02 10:15:58;;;;;;;7.10;2.63;;;16.40;56.20;;;;;;5052857;28;20232;-67
2024/02/02 10:18:48;;;;;;;3.83;2.03;;;16.40;55.50;;;;;;5052435;28;20190;-68
2024/02/02 10:21:47;;;;;;;6.15;3.00;;;16.30;55.80;;;;;;5053985;28;20248;-69
2024/02/02 10:24:42;;;;;;;10.63;2.75;;;16.30;55.50;;;;;;5053192;28;20171;-69
2024/02/02 10:27:45;;;;;;;11.50;2.90;;;16.30;55.90;;;;;;5052383;28;20229;-68
2024/02/02 10:30:32;;;;;;;7.13;2.33;;;16.30;55.70;;;;;;5053611;28;20553;-69
2024/02/02 10:33:08;;;;;;;9.23;3.28;;;16.30;55.70;;;;;;5052864;28;20258;-69
2024/02/02 10:36:09;;;;;;;6.03;2.58;;;16.30;55.70;;;;;;5053128;28;20270;-70
2024/02/02 10:38:59;;;;;;;5.45;2.60;;;16.30;55.70;;;;;;5032732;28;20192;-69
2024/02/02 10:41:33;;;;;;;7.72;2.38;;;16.20;55.60;;;;;;5051869;28;20254;-71
2024/02/02 10:44:03;;;;;;;8.05;2.35;;;16.30;55.70;;;;;;5052255;28;20185;-70
2024/02/02 10:46:50;;;;;;;7.03;2.75;;;16.20;55.70;;;;;;5051228;28;20179;-70
2024/02/02 10:49:38;;;;;;;8.15;2.30;;;16.20;55.60;;;;;;5051958;28;20850;-71
2024/02/02 10:52:10;;;;;;;4.97;2.42;;;16.20;55.70;;;;;;5051189;28;20182;-69
2024/02/02 10:55:11;;;;;;;6.90;2.72;;;16.20;55.70;;;;;;5051635;28;20171;-69
2024/02/02 10:57:54;;;;;;;5.55;2.40;;;16.20;55.70;;;;;;5051351;28;20235;-69
2024/02/02 11:00:23;;;;;;;5.63;2.42;;;16.20;55.70;;;;;;5050544;28;20538;-69
2024/02/02 11:03:09;;;;;;;4.82;2.50;;;16.20;55.70;;;;;;5053118;28;20171;-68
2024/02/02 11:05:34;;;;;;;7.22;2.88;;;16.20;55.70;;;;;;5051394;28;20261;-68
2024/02/02 11:08:10;;;;;;;3.38;2.28;;;16.20;55.70;;;;;;5051922;28;20195;-70
2024/02/02 11:10:51;;;;;;;7.30;2.60;;;16.20;55.70;;;;;;5051076;28;20731;-68
2024/02/02 11:13:42;;;;;;;6.18;2.35;;;16.20;55.90;;;;;;5055750;28;20229;-68
2024/02/02 11:16:33;;;;;;;6.28;2.65;;;16.20;55.80;;;;;;5034655;28;20202;-68
2024/02/02 11:19:14;;;;;;;6.35;2.85;;;16.10;55.80;;;;;;5051276;28;20182;-68
2024/02/02 11:21:54;;;;;;;4.45;2.53;;;16.10;55.90;;;;;;5065218;28;20178;-68
2024/02/02 11:24:30;;;;;;;5.50;2.72;;;16.10;55.90;;;;;;5072311;28;20167;-68
2024/02/02 11:27:04;;;;;;;5.40;2.20;;;16.10;55.90;;;;;;5071061;28;20222;-68
2024/02/02 11:30:03;;;;;;;5.18;2.30;;;16.10;55.90;;;;;;5062942;28;20198;-67
2024/02/02 11:32:33;;;;;;;4.43;2.65;;;16.00;55.80;;;;;;5047873;28;20189;-67
2024/02/02 11:35:06;;;;;;;8.27;3.50;;;16.00;55.80;;;;;;5051745;28;20175;-68
2024/02/02 11:37:32;;;;;;;7.05;3.22;;;16.00;55.80;;;;;;5051894;28;20262;-68
2024/02/02 11:40:04;;;;;;;8.52;3.40;;;16.00;55.80;;;;;;5052299;28;20259;-68
2024/02/02 11:42:30;;;;;;;4.10;2.40;;;16.00;55.80;;;;;;5051067;28;20179;-68
2024/02/02 11:44:57;;;;;;;7.22;2.70;;;16.00;55.80;;;;;;5052389;28;20217;-68
2024/02/02 11:47:22;;;;;;;4.97;2.53;;;16.00;56.50;;;;;;5065568;28;20265;-68
2024/02/02 11:49:51;;;;;;;5.53;2.53;;;16.00;55.80;;;;;;5059369;28;20242;-67
2024/02/02 11:52:22;;;;;;;5.32;2.78;;;16.10;55.80;;;;;;5050644;28;20175;-68
2024/02/02 11:54:52;;;;;;;9.30;3.35;;;16.10;56.30;;;;;;5052104;28;20677;-68
2024/02/02 11:57:20;;;;;;;5.78;3.00;;;16.10;55.70;;;;;;5049718;28;20240;-68
2024/02/02 11:59:47;;;;;;;5.95;2.80;;;16.20;55.60;;;;;;5052150;28;20178;-68
2024/02/02 12:02:16;;;;;;;4.60;2.60;;;16.20;55.50;;;;;;5050739;28;20217;-68
2024/02/02 12:05:03;;;;;;;5.43;2.97;;;16.30;55.50;;;;;;5051214;28;20267;-68
2024/02/02 12:07:38;;;;;;;7.05;2.72;;;16.30;56.00;;;;;;5051609;28;20673;-69
2024/02/02 12:10:04;;;;;;;6.43;2.60;;;16.20;55.40;;;;;;5051084;28;20301;-68
2024/02/02 12:12:43;;;;;;;6.22;2.65;;;16.20;55.50;;;;;;5051568;28;20517;-68
2024/02/02 12:15:09;;;;;;;7.70;2.92;;;16.20;56.20;;;;;;5054528;28;20641;-68
2024/02/02 12:17:35;;;;;;;8.05;3.03;;;16.10;55.60;;;;;;5056623;28;20178;-68
2024/02/02 12:20:07;;;;;;;5.70;2.85;;;16.10;55.60;;;;;;5057504;28;20677;-68
2024/02/02 12:22:33;;;;;;;5.50;2.90;;;16.20;56.20;;;;;;5056939;28;20642;-68
2024/02/02 12:24:59;;;;;;;5.00;2.63;;;16.20;56.20;;;;;;5057846;28;20235;-68
2024/02/02 12:27:24;;;;;;;6.97;2.53;;;16.20;55.60;;;;;;5058103;28;20171;-67
2024/02/02 12:29:50;;;;;;;5.50;2.72;;;16.20;55.50;;;;;;5058254;28;20222;-67
2024/02/02 12:32:15;;;;;;;6.22;3.03;;;16.30;55.50;;;;;;5057721;28;20637;-67
2024/02/02 12:34:41;;;;;;;6.50;2.70;;;16.30;55.60;;;;;;5058385;28;20183;-67
2024/02/02 12:37:07;;;;;;;4.45;2.25;;;16.30;56.10;;;;;;5058522;28;20927;-68
2024/02/02 12:39:36;;;;;;;5.05;2.40;;;16.40;55.50;;;;;;5057385;28;20189;-68
2024/02/02 12:42:03;;;;;;;6.80;2.67;;;16.40;55.40;;;;;;5058359;28;20516;-67
2024/02/02 12:44:31;;;;;;;5.65;2.75;;;16.40;55.40;;;;;;5057725;28;20187;-67
2024/02/02 12:46:58;;;;;;;4.13;2.35;;;16.50;55.40;;;;;;5058425;28;20206;-67
2024/02/02 12:49:23;;;;;;;5.20;3.13;;;16.50;55.40;;;;;;5058122;28;20330;-67
2024/02/02 12:51:53;;;;;;;4.43;2.67;;;16.50;55.90;;;;;;5057706;28;21062;-68
2024/02/02 12:54:18;;;;;;;5.40;2.65;;;16.60;55.90;;;;;;5058099;28;20179;-67
2024/02/02 12:56:44;;;;;;;3.72;2.33;;;16.60;55.90;;;;;;5057454;28;20233;-67